createdAt,value
2023-05-15T00:01:13.415Z,1.4
2023-05-15T00:02:29.000Z,2
2023-05-15T00:03:46.000Z,0.8
2023-05-15T00:05:02.000Z,1.1
2023-05-15T00:06:18.000Z,1
2023-05-15T00:07:34.887Z,1.2
2023-05-15T00:08:51.000Z,1.5
2023-05-15T00:10:06.499Z,1.3
2023-05-15T00:11:22.000Z,1.2
2023-05-15T00:12:39.081Z,1.2
2023-05-15T00:13:55.000Z,0.8
2023-05-15T00:15:11.673Z,1.1
2023-05-15T00:16:27.000Z,0.9
2023-05-15T00:17:44.246Z,0.9
2023-05-15T00:19:00.000Z,1.3
2023-05-15T00:20:16.833Z,1.1
2023-05-15T00:21:33.111Z,0.9
2023-05-15T00:22:49.418Z,1.2
2023-05-15T00:24:05.000Z,0.9
2023-05-15T00:25:22.000Z,1.2
2023-05-15T00:26:37.000Z,1.3
2023-05-15T00:27:53.615Z,0.8
2023-05-15T00:29:09.000Z,1.2
2023-05-15T00:30:26.000Z,1.2
2023-05-15T00:31:42.503Z,1
2023-05-15T00:32:58.777Z,1.9
2023-05-15T00:34:15.000Z,1
2023-05-15T00:35:31.367Z,1.5
2023-05-15T00:36:47.000Z,0.9
2023-05-15T00:38:03.958Z,1.1
2023-05-15T00:39:20.000Z,1.1
2023-05-15T00:40:36.552Z,2
2023-05-15T00:41:52.832Z,1.1
2023-05-15T00:43:08.143Z,1.1
2023-05-15T00:44:24.000Z,1.4
2023-05-15T00:45:40.732Z,1.5
2023-05-15T00:46:57.028Z,0.8
2023-05-15T00:48:13.000Z,1.3
2023-05-15T00:49:29.000Z,1.2
2023-05-15T00:50:45.000Z,1.1
2023-05-15T00:52:02.000Z,1.6
2023-05-15T00:53:18.507Z,1.2
2023-05-15T00:54:34.000Z,0.9
2023-05-15T00:55:51.078Z,1.1
2023-05-15T00:57:07.371Z,1.2
2023-05-15T00:58:23.670Z,1.3
2023-05-15T00:59:38.000Z,0.8
2023-05-15T01:00:55.278Z,0.9
2023-05-15T01:02:11.000Z,1
2023-05-15T01:03:27.865Z,1
2023-05-15T01:04:44.000Z,1
2023-05-15T01:06:00.439Z,1.4
2023-05-15T01:07:16.735Z,1.5
2023-05-15T01:08:33.040Z,1.3
2023-05-15T01:09:49.332Z,1
2023-05-15T01:11:05.000Z,1.1
2023-05-15T01:12:21.000Z,1.2
2023-05-15T01:13:38.221Z,1.2
2023-05-15T01:14:54.000Z,1.2
2023-05-15T01:16:09.813Z,1.6
2023-05-15T01:17:26.000Z,1
2023-05-15T01:18:42.394Z,1.7
2023-05-15T01:19:58.686Z,1.4
2023-05-15T01:21:15.000Z,1.3
2023-05-15T01:22:31.000Z,1.4
2023-05-15T01:23:47.568Z,1.2
2023-05-15T01:25:03.000Z,0.9
2023-05-15T01:26:20.000Z,1.5
2023-05-15T01:27:36.000Z,0.9
2023-05-15T01:28:52.739Z,1.2
2023-05-15T01:30:09.000Z,1.8
2023-05-15T01:31:25.340Z,1.1
2023-05-15T01:32:40.000Z,1
2023-05-15T01:33:56.000Z,1.3
2023-05-15T01:35:13.000Z,1.2
2023-05-15T01:36:29.521Z,1
2023-05-15T01:37:45.000Z,1.3
2023-05-15T01:39:02.121Z,1.5
2023-05-15T01:40:18.000Z,1
2023-05-15T01:41:34.000Z,1.5
2023-05-15T01:42:51.000Z,1.1
2023-05-15T01:44:07.287Z,1.8
2023-05-15T01:45:23.000Z,1
2023-05-15T01:46:39.865Z,1.2
2023-05-15T01:47:56.164Z,1.2
2023-05-15T01:49:11.475Z,1.6
2023-05-15T01:50:27.755Z,1.2
2023-05-15T01:51:44.068Z,1.1
2023-05-15T01:53:00.000Z,1.2
2023-05-15T01:54:16.653Z,0.9
2023-05-15T01:55:32.000Z,1.3
2023-05-15T01:56:49.226Z,1
2023-05-15T01:58:05.535Z,0.9
2023-05-15T01:59:21.821Z,2
2023-05-15T02:00:38.107Z,2.1
2023-05-15T02:01:54.405Z,0.8
2023-05-15T02:03:10.000Z,0.9
2023-05-15T02:04:27.000Z,1.3
2023-05-15T02:05:42.000Z,1.1
2023-05-15T02:06:58.595Z,1.1
2023-05-15T02:08:14.000Z,1.5
2023-05-15T02:09:31.000Z,1.6
2023-05-15T02:10:47.482Z,1.2
2023-05-15T02:12:03.764Z,1.4
2023-05-15T02:13:20.000Z,0.9
2023-05-15T02:14:36.370Z,1.5
2023-05-15T02:15:52.000Z,1.8
2023-05-15T02:17:08.951Z,1.8
2023-05-15T02:18:25.000Z,1.7
2023-05-15T02:19:41.000Z,1.3
2023-05-15T02:20:57.000Z,1.4
2023-05-15T02:22:13.000Z,1.9
2023-05-15T02:23:29.435Z,1.2
2023-05-15T02:24:45.719Z,1.1
2023-05-15T02:26:02.000Z,1.2
2023-05-15T02:27:18.320Z,1.2
2023-05-15T02:28:34.000Z,0.9
2023-05-15T02:29:49.000Z,1.4
2023-05-15T02:31:06.000Z,1.1
2023-05-15T02:32:22.505Z,1.9
2023-05-15T02:33:38.801Z,1.2
2023-05-15T02:34:55.092Z,1
2023-05-15T02:36:11.379Z,1.7
2023-05-15T02:37:27.679Z,1.5
2023-05-15T02:38:43.000Z,1.3
2023-05-15T02:40:00.262Z,1.2
2023-05-15T02:41:16.000Z,1.6
2023-05-15T02:42:32.000Z,1.4
2023-05-15T02:43:49.070Z,1.4
2023-05-15T02:45:05.342Z,1.3
2023-05-15T02:46:20.000Z,1.6
2023-05-15T02:47:36.843Z,1.6
2023-05-15T02:48:53.000Z,1.6
2023-05-15T02:50:09.322Z,1.3
2023-05-15T02:51:25.567Z,1.1
2023-05-15T02:52:41.793Z,1.7
2023-05-15T02:53:58.000Z,1.6
2023-05-15T02:55:14.273Z,1.6
2023-05-15T02:56:30.000Z,1.1
2023-05-15T02:57:46.753Z,1.3
2023-05-15T02:59:03.000Z,1.4
2023-05-15T03:00:19.240Z,1.9
2023-05-15T03:01:35.000Z,1.2
2023-05-15T03:02:50.737Z,1.5
2023-05-15T03:04:06.964Z,1.5
2023-05-15T03:05:23.000Z,1.5
2023-05-15T03:06:39.000Z,1.2
2023-05-15T03:07:55.678Z,1.9
2023-05-15T03:09:11.937Z,1.9
2023-05-15T03:10:28.157Z,1.4
2023-05-15T03:11:44.413Z,1.3
2023-05-15T03:13:00.643Z,2
2023-05-15T03:14:16.000Z,1.3
2023-05-15T03:15:33.115Z,1.8
2023-05-15T03:16:49.000Z,1.5
2023-05-15T03:18:05.601Z,1.8
2023-05-15T03:19:20.000Z,1.5
2023-05-15T03:20:37.000Z,2
2023-05-15T03:21:53.000Z,1.3
2023-05-15T03:23:09.572Z,1.3
2023-05-15T03:24:25.000Z,1.3
2023-05-15T03:25:42.046Z,1.7
2023-05-15T03:26:58.000Z,1.3
2023-05-15T03:28:14.540Z,2
2023-05-15T03:29:30.000Z,1.3
2023-05-15T03:30:47.000Z,0.9
2023-05-15T03:32:03.000Z,1.4
2023-05-15T03:33:19.484Z,1.9
2023-05-15T03:34:35.712Z,1
2023-05-15T03:35:50.995Z,1.6
2023-05-15T03:37:07.223Z,1.7
2023-05-15T03:38:23.470Z,1.7
2023-05-15T03:39:39.000Z,1.7
2023-05-15T03:40:55.952Z,2
2023-05-15T03:42:12.000Z,2
2023-05-15T03:43:28.418Z,1.7
2023-05-15T03:44:44.000Z,1.3
2023-05-15T03:46:00.911Z,1.8
2023-05-15T03:47:17.115Z,1.3
2023-05-15T03:48:33.377Z,2
2023-05-15T03:49:49.000Z,1.9
2023-05-15T03:51:05.000Z,1.8
2023-05-15T03:52:21.000Z,1.9
2023-05-15T03:53:37.349Z,2.2
2023-05-15T03:54:53.000Z,1.9
2023-05-15T03:56:09.000Z,1.3
2023-05-15T03:57:26.044Z,1.9
2023-05-15T03:58:42.306Z,1.9
2023-05-15T03:59:58.000Z,1.5
2023-05-15T04:01:14.787Z,1.2
2023-05-15T04:02:31.000Z,1.5
2023-05-15T04:03:47.260Z,1.1
2023-05-15T04:05:03.000Z,1.6
2023-05-15T04:06:19.000Z,2.1
2023-05-15T04:07:35.986Z,1.8
2023-05-15T04:08:51.246Z,1.3
2023-05-15T04:10:07.461Z,1.9
2023-05-15T04:11:23.716Z,1.8
2023-05-15T04:12:39.941Z,2.3
2023-05-15T04:13:56.204Z,2.6
2023-05-15T04:15:12.000Z,1.7
2023-05-15T04:16:28.670Z,1.6
2023-05-15T04:17:44.000Z,1.5
2023-05-15T04:19:01.152Z,1.5
2023-05-15T04:20:17.000Z,2.3
2023-05-15T04:21:33.644Z,1.6
2023-05-15T04:22:49.858Z,2.3
2023-05-15T04:24:06.000Z,1.6
2023-05-15T04:25:21.000Z,1.8
2023-05-15T04:26:37.605Z,2.2
2023-05-15T04:27:53.000Z,2.3
2023-05-15T04:29:10.079Z,1.9
2023-05-15T04:30:26.000Z,1.9
2023-05-15T04:31:42.560Z,2
2023-05-15T04:32:58.811Z,1.9
2023-05-15T04:34:15.039Z,1.7
2023-05-15T04:35:31.000Z,1.7
2023-05-15T04:36:47.000Z,2.3
2023-05-15T04:38:03.000Z,1.3
2023-05-15T04:39:20.015Z,2.2
2023-05-15T04:40:36.000Z,1.7
2023-05-15T04:41:51.505Z,1.2
2023-05-15T04:43:07.000Z,1.6
2023-05-15T04:44:23.978Z,1.4
2023-05-15T04:45:40.216Z,1.4
2023-05-15T04:46:56.447Z,1.6
2023-05-15T04:48:12.000Z,1.6
2023-05-15T04:49:28.941Z,1.5
2023-05-15T04:50:45.000Z,1.9
2023-05-15T04:52:01.422Z,1.8
2023-05-15T04:53:17.000Z,2
2023-05-15T04:54:33.887Z,2.2
2023-05-15T04:55:50.129Z,2.1
2023-05-15T04:57:06.000Z,1.6
2023-05-15T04:58:21.000Z,1.8
2023-05-15T04:59:37.000Z,1.7
2023-05-15T05:00:54.000Z,1.8
2023-05-15T05:02:10.000Z,2.4
2023-05-15T05:03:26.000Z,1.7
2023-05-15T05:04:42.842Z,3
2023-05-15T05:05:59.060Z,4
2023-05-15T05:07:15.309Z,3
2023-05-15T05:08:31.000Z,1.9
2023-05-15T05:09:47.777Z,2.1
2023-05-15T05:11:04.000Z,1.9
2023-05-15T05:12:20.258Z,1.8
2023-05-15T05:13:36.000Z,1.7
2023-05-15T05:14:52.000Z,1.9
2023-05-15T05:16:08.000Z,0.9
2023-05-15T05:17:24.221Z,1.5
2023-05-15T05:18:40.000Z,2.5
2023-05-15T05:19:56.712Z,2.9
2023-05-15T05:21:12.000Z,1.6
2023-05-15T05:22:29.190Z,1.8
2023-05-15T05:23:45.000Z,2.3
2023-05-15T05:25:01.656Z,1.7
2023-05-15T05:26:17.000Z,1.9
2023-05-15T05:27:34.144Z,2.5
2023-05-15T05:28:50.000Z,3.4
2023-05-15T05:30:06.625Z,2.6
2023-05-15T05:31:22.000Z,2.3
2023-05-15T05:32:38.108Z,2.1
2023-05-15T05:33:54.000Z,1.3
2023-05-15T05:35:10.602Z,2.5
2023-05-15T05:36:26.000Z,2.6
2023-05-15T05:37:43.000Z,2.6
2023-05-15T05:38:59.000Z,2.6
2023-05-15T05:40:15.556Z,1.4
2023-05-15T05:41:31.000Z,2.7
2023-05-15T05:42:48.039Z,1.5
2023-05-15T05:44:04.000Z,2.4
2023-05-15T05:45:20.504Z,1.9
2023-05-15T05:46:36.000Z,1.9
2023-05-15T05:47:53.000Z,2.1
2023-05-15T05:49:08.000Z,1.4
2023-05-15T05:50:24.486Z,2.1
2023-05-15T05:51:40.000Z,2.1
2023-05-15T05:52:56.961Z,2.1
2023-05-15T05:54:13.000Z,1.9
2023-05-15T05:55:29.435Z,1.8
2023-05-15T05:56:45.000Z,2
2023-05-15T05:58:01.925Z,2.1
2023-05-15T05:59:18.000Z,1.7
2023-05-15T06:00:34.000Z,2.1
2023-05-15T06:01:50.000Z,1.8
2023-05-15T06:03:06.000Z,1.6
2023-05-15T06:04:23.120Z,2.2
2023-05-15T06:05:38.378Z,2
2023-05-15T06:06:54.000Z,1.5
2023-05-15T06:08:10.000Z,1.8
2023-05-15T06:09:27.000Z,2.1
2023-05-15T06:10:43.330Z,1.5
2023-05-15T06:11:59.000Z,1.5
2023-05-15T06:13:15.000Z,1.8
2023-05-15T06:14:32.000Z,2.4
2023-05-15T06:15:48.000Z,1.6
2023-05-15T06:17:04.518Z,2.4
2023-05-15T06:18:20.764Z,1.8
2023-05-15T06:19:37.000Z,1.7
2023-05-15T06:20:53.251Z,2.1
2023-05-15T06:22:08.000Z,1.8
2023-05-15T06:23:24.729Z,1.7
2023-05-15T06:24:41.000Z,2.5
2023-05-15T06:25:57.206Z,2.1
2023-05-15T06:27:13.000Z,2.5
2023-05-15T06:28:29.000Z,1.8
2023-05-15T06:29:45.000Z,2.6
2023-05-15T06:31:02.180Z,1.5
2023-05-15T06:32:18.000Z,2
2023-05-15T06:33:34.646Z,2.5
2023-05-15T06:34:50.000Z,2.1
2023-05-15T06:36:07.000Z,2
2023-05-15T06:37:23.000Z,1.8
2023-05-15T06:38:38.000Z,1.9
2023-05-15T06:39:54.870Z,1.7
2023-05-15T06:41:11.111Z,1.2
2023-05-15T06:42:27.327Z,1.6
2023-05-15T06:43:43.000Z,2.4
2023-05-15T06:44:59.000Z,1.8
2023-05-15T06:46:16.000Z,2.7
2023-05-15T06:47:32.000Z,2.3
2023-05-15T06:48:48.662Z,1.7
2023-05-15T06:50:04.900Z,1.9
2023-05-15T06:51:21.137Z,2.1
2023-05-15T06:52:37.388Z,1.9
2023-05-15T06:53:53.000Z,3.1
2023-05-15T06:55:09.000Z,2.2
2023-05-15T06:56:26.000Z,1.9
2023-05-15T06:57:42.000Z,2.5
2023-05-15T06:58:58.000Z,2.4
2023-05-15T07:00:14.000Z,2.2
2023-05-15T07:01:30.072Z,2
2023-05-15T07:02:46.000Z,2.7
2023-05-15T07:04:02.545Z,1.6
2023-05-15T07:05:18.000Z,2
2023-05-15T07:06:35.000Z,2.2
2023-05-15T07:07:51.000Z,2.1
2023-05-15T07:09:07.000Z,2.1
2023-05-15T07:10:23.000Z,2.5
2023-05-15T07:11:40.000Z,2.2
2023-05-15T07:12:56.225Z,2
2023-05-15T07:14:12.455Z,2.1
2023-05-15T07:15:28.000Z,2.3
2023-05-15T07:16:44.000Z,2.2
2023-05-15T07:18:00.191Z,2.5
2023-05-15T07:19:16.000Z,2.7
2023-05-15T07:20:32.000Z,1.6
2023-05-15T07:21:48.000Z,1.8
2023-05-15T07:23:05.000Z,2.6
2023-05-15T07:24:21.402Z,2
2023-05-15T07:25:37.625Z,1.8
2023-05-15T07:26:53.879Z,2.1
2023-05-15T07:28:10.000Z,1.9
2023-05-15T07:29:26.000Z,2.1
2023-05-15T07:30:42.000Z,2.2
2023-05-15T07:31:58.000Z,1.4
2023-05-15T07:33:15.061Z,1.7
2023-05-15T07:34:30.000Z,2.3
2023-05-15T07:35:46.000Z,2
2023-05-15T07:37:02.811Z,1.7
2023-05-15T07:38:19.038Z,2.5
2023-05-15T07:39:35.276Z,2
2023-05-15T07:40:51.000Z,2.1
2023-05-15T07:42:07.757Z,2.5
2023-05-15T07:43:23.995Z,2.5
2023-05-15T07:44:40.000Z,2.4
2023-05-15T07:45:56.000Z,3.2
2023-05-15T07:47:12.000Z,1.9
2023-05-15T07:48:28.946Z,2.3
2023-05-15T07:49:45.206Z,2.4
2023-05-15T07:51:01.548Z,1.3
2023-05-15T07:52:17.000Z,2.3
2023-05-15T07:53:34.000Z,1.8
2023-05-15T07:54:50.279Z,1.5
2023-05-15T07:56:06.517Z,2
2023-05-15T07:57:22.000Z,1.6
2023-05-15T07:58:39.000Z,1.9
2023-05-15T07:59:55.240Z,1.2
2023-05-15T08:01:11.479Z,2.9
2023-05-15T08:02:27.710Z,1.9
2023-05-15T08:03:43.000Z,2.3
2023-05-15T08:05:00.185Z,1.7
2023-05-15T08:06:16.000Z,1.5
2023-05-15T08:07:31.694Z,1.8
2023-05-15T08:08:47.000Z,2.8
2023-05-15T08:10:04.000Z,1.9
2023-05-15T08:11:20.400Z,3
2023-05-15T08:12:36.641Z,2
2023-05-15T08:13:52.882Z,2.4
2023-05-15T08:15:09.000Z,2.9
2023-05-15T08:16:25.000Z,1.6
2023-05-15T08:17:41.000Z,2.2
2023-05-15T08:18:57.000Z,1.4
2023-05-15T08:20:14.000Z,2.5
2023-05-15T08:21:30.313Z,1.8
2023-05-15T08:22:46.559Z,2.1
2023-05-15T08:24:02.000Z,2.6
2023-05-15T08:25:19.000Z,2
2023-05-15T08:26:35.000Z,1.8
2023-05-15T08:27:51.642Z,2
2023-05-15T08:29:07.000Z,1.9
2023-05-15T08:30:24.000Z,1.8
2023-05-15T08:31:40.000Z,2
2023-05-15T08:32:56.601Z,1.6
2023-05-15T08:34:12.835Z,3
2023-05-15T08:35:29.082Z,1.7
2023-05-15T08:36:45.000Z,1.8
2023-05-15T08:38:01.570Z,1.7
2023-05-15T08:39:17.000Z,1.5
2023-05-15T08:40:33.000Z,1.9
2023-05-15T08:41:49.000Z,1.7
2023-05-15T08:43:05.538Z,1.8
2023-05-15T08:44:21.772Z,1.5
2023-05-15T08:45:38.009Z,1.7
2023-05-15T08:46:54.000Z,1.9
2023-05-15T08:48:10.000Z,1.7
2023-05-15T08:49:26.000Z,1.8
2023-05-15T08:50:42.000Z,1.4
2023-05-15T08:51:59.000Z,2.3
2023-05-15T08:53:15.449Z,1.5
2023-05-15T08:54:31.000Z,1.4
2023-05-15T08:55:47.940Z,1.4
2023-05-15T08:57:04.000Z,1.4
2023-05-15T08:58:20.522Z,1.4
2023-05-15T08:59:36.000Z,1.4
2023-05-15T09:00:53.000Z,1.3
2023-05-15T09:02:09.000Z,1.6
2023-05-15T09:03:25.483Z,1.7
2023-05-15T09:04:41.718Z,1.6
2023-05-15T09:05:57.968Z,1.4
2023-05-15T09:07:14.000Z,1.5
2023-05-15T09:08:30.440Z,1.8
2023-05-15T09:09:46.000Z,1.2
2023-05-15T09:11:02.000Z,1.4
2023-05-15T09:12:19.000Z,1.5
2023-05-15T09:13:34.421Z,1.4
2023-05-15T09:14:50.000Z,0.8
2023-05-15T09:16:06.893Z,1
2023-05-15T09:17:23.112Z,1.4
2023-05-15T09:18:39.000Z,1.7
2023-05-15T09:19:55.606Z,1.4
2023-05-15T09:21:11.850Z,1.1
2023-05-15T09:22:28.000Z,1.3
2023-05-15T09:23:44.000Z,1.3
2023-05-15T09:25:00.000Z,0.7
2023-05-15T09:26:16.805Z,1.2
2023-05-15T09:27:33.032Z,1.1
2023-05-15T09:28:49.272Z,1.8
2023-05-15T09:30:04.000Z,0.8
2023-05-15T09:31:20.776Z,1.3
2023-05-15T09:32:37.000Z,0.8
2023-05-15T09:33:53.245Z,1.2
2023-05-15T09:35:09.000Z,1
2023-05-15T09:36:25.728Z,1.5
2023-05-15T09:37:41.968Z,1.2
2023-05-15T09:38:58.216Z,0.5
2023-05-15T09:41:30.691Z,1.2
2023-05-15T09:42:46.000Z,1.3
2023-05-15T09:44:03.000Z,1
2023-05-15T09:45:19.000Z,0.6
2023-05-15T09:46:34.670Z,1.1
2023-05-15T09:47:50.000Z,1.3
2023-05-15T09:49:07.000Z,0.7
2023-05-15T09:50:23.374Z,1.1
2023-05-15T09:51:39.610Z,0.8
2023-05-15T09:52:55.852Z,1
2023-05-15T09:54:12.097Z,1.2
2023-05-15T09:55:28.000Z,0.9
2023-05-15T09:56:44.000Z,1
2023-05-15T09:58:00.000Z,0.9
2023-05-15T09:59:17.000Z,1
2023-05-15T10:00:33.000Z,0.7
2023-05-15T10:01:49.534Z,0.9
2023-05-15T10:03:04.784Z,0.9
2023-05-15T10:04:21.031Z,1
2023-05-15T10:05:37.000Z,1.1
2023-05-15T10:06:53.510Z,1
2023-05-15T10:08:09.000Z,1.3
2023-05-15T10:09:25.985Z,1
2023-05-15T10:10:42.000Z,1.6
2023-05-15T10:11:58.000Z,1.4
2023-05-15T10:13:14.702Z,1.1
2023-05-15T10:14:30.944Z,0.7
2023-05-15T10:15:47.183Z,1.3
2023-05-15T10:17:03.425Z,1.2
2023-05-15T10:18:19.000Z,1.5
2023-05-15T10:19:34.000Z,1.4
2023-05-15T10:20:51.000Z,1
2023-05-15T10:22:07.398Z,1
2023-05-15T10:23:23.000Z,0.9
2023-05-15T10:24:39.871Z,0.6
2023-05-15T10:25:56.110Z,1.3
2023-05-15T10:27:12.000Z,0.9
2023-05-15T10:28:28.000Z,1
2023-05-15T10:29:44.000Z,1
2023-05-15T10:31:01.066Z,0.9
2023-05-15T10:32:17.314Z,1.3
2023-05-15T10:33:33.000Z,1.1
2023-05-15T10:34:49.779Z,0.8
2023-05-15T10:36:05.050Z,1.1
2023-05-15T10:37:21.292Z,1.4
2023-05-15T10:38:37.000Z,0.8
2023-05-15T10:39:53.767Z,0.7
2023-05-15T10:41:10.000Z,0.9
2023-05-15T10:42:26.000Z,1
2023-05-15T10:43:42.000Z,1
2023-05-15T10:44:58.718Z,1.1
2023-05-15T10:46:14.000Z,1.2
2023-05-15T10:47:31.198Z,1.1
2023-05-15T10:48:47.437Z,1.4
2023-05-15T10:50:03.000Z,1.1
2023-05-15T10:51:19.906Z,1.2
2023-05-15T10:52:35.000Z,1
2023-05-15T10:53:51.404Z,1.4
2023-05-15T10:55:07.000Z,0.8
2023-05-15T10:56:23.000Z,1
2023-05-15T10:57:40.148Z,1.1
2023-05-15T10:58:56.368Z,1.2
2023-05-15T11:00:11.627Z,1
2023-05-15T11:01:27.000Z,0.7
2023-05-15T11:02:44.109Z,1.4
2023-05-15T11:04:00.000Z,1.3
2023-05-15T11:05:16.000Z,0.9
2023-05-15T11:06:32.817Z,1.2
2023-05-15T11:07:49.000Z,1.3
2023-05-15T11:09:05.301Z,1
2023-05-15T11:10:21.540Z,0.9
2023-05-15T11:11:37.000Z,1.3
2023-05-15T11:12:54.000Z,1
2023-05-15T11:14:10.000Z,0.9
2023-05-15T11:15:26.489Z,1.1
2023-05-15T11:16:41.000Z,0.6
2023-05-15T11:17:57.987Z,1.1
2023-05-15T11:19:14.000Z,1.2
2023-05-15T11:20:30.465Z,1.4
2023-05-15T11:21:46.693Z,1
2023-05-15T11:23:02.000Z,1.3
2023-05-15T11:24:19.000Z,1.2
2023-05-15T11:25:35.420Z,1.5
2023-05-15T11:26:51.000Z,1.1
2023-05-15T11:28:07.895Z,0.9
2023-05-15T11:29:24.150Z,1
2023-05-15T11:31:56.621Z,1.2
2023-05-15T11:33:11.871Z,1.3
2023-05-15T11:34:28.000Z,1.3
2023-05-15T11:35:44.000Z,1.2
2023-05-15T11:37:00.580Z,1.1
2023-05-15T11:38:16.839Z,1.1
2023-05-15T11:39:33.066Z,1.5
2023-05-15T11:40:49.321Z,0.9
2023-05-15T11:42:05.548Z,1
2023-05-15T11:43:21.788Z,1.4
2023-05-15T11:44:38.000Z,1.4
2023-05-15T11:45:54.259Z,1.1
2023-05-15T11:47:10.000Z,0.8
2023-05-15T11:48:26.737Z,1
2023-05-15T11:49:42.000Z,0.5
2023-05-15T11:50:58.000Z,1
2023-05-15T11:52:14.000Z,1
2023-05-15T11:53:30.727Z,0.9
2023-05-15T11:54:46.962Z,1
2023-05-15T11:56:03.205Z,1
2023-05-15T11:57:19.438Z,1.2
2023-05-15T11:58:35.680Z,1.2
2023-05-15T11:59:51.000Z,1.6
2023-05-15T12:01:08.151Z,1.4
2023-05-15T12:02:24.000Z,1.2
2023-05-15T12:03:40.607Z,1.4
2023-05-15T12:04:56.864Z,1.3
2023-05-15T12:06:12.127Z,1.1
2023-05-15T12:07:28.361Z,1.1
2023-05-15T12:08:44.610Z,1.5
2023-05-15T12:10:00.859Z,1.2
2023-05-15T12:11:17.086Z,0.8
2023-05-15T12:12:33.295Z,1.4
2023-05-15T12:13:49.568Z,1.1
2023-05-15T12:15:05.000Z,1.3
2023-05-15T12:16:22.037Z,1.2
2023-05-15T12:17:38.265Z,1.2
2023-05-15T12:18:54.000Z,1.6
2023-05-15T12:20:10.755Z,1
2023-05-15T12:21:27.000Z,1.4
2023-05-15T12:22:42.000Z,1.2
2023-05-15T12:23:58.489Z,1.2
2023-05-15T12:25:14.704Z,1.6
2023-05-15T12:26:30.979Z,1.2
2023-05-15T12:27:47.183Z,1.3
2023-05-15T12:29:03.452Z,1.4
2023-05-15T12:30:19.686Z,1.4
2023-05-15T12:31:35.923Z,1.1
2023-05-15T12:32:52.000Z,1.2
2023-05-15T12:34:08.403Z,1.6
2023-05-15T12:35:24.000Z,1.7
2023-05-15T12:36:40.000Z,1.4
2023-05-15T12:37:57.120Z,1.4
2023-05-15T12:39:12.376Z,1.5
2023-05-15T12:40:28.594Z,1.4
2023-05-15T12:41:44.863Z,1.4
2023-05-15T12:43:01.000Z,1.8
2023-05-15T12:44:17.347Z,1.4
2023-05-15T12:45:33.000Z,1.7
2023-05-15T12:46:49.816Z,1.5
2023-05-15T12:48:06.056Z,1.5
2023-05-15T12:49:22.299Z,0.9
2023-05-15T12:50:38.531Z,1.9
2023-05-15T12:51:54.773Z,1.8
2023-05-15T12:53:11.000Z,1.8
2023-05-15T12:54:27.262Z,1.4
2023-05-15T12:55:42.000Z,1.3
2023-05-15T12:56:58.760Z,1.1
2023-05-15T12:58:14.000Z,1.1
2023-05-15T12:59:31.222Z,1.8
2023-05-15T13:00:47.465Z,1.8
2023-05-15T13:02:03.717Z,1.2
2023-05-15T13:03:19.937Z,1.4
2023-05-15T13:04:36.175Z,1.2
2023-05-15T13:05:52.000Z,1.4
2023-05-15T13:07:08.000Z,1.3
2023-05-15T13:08:24.000Z,1.4
2023-05-15T13:09:41.145Z,1.4
2023-05-15T13:10:57.000Z,1
2023-05-15T13:12:12.000Z,1.6
2023-05-15T13:13:28.870Z,1.3
2023-05-15T13:14:45.112Z,1.3
2023-05-15T13:16:01.322Z,1.2
2023-05-15T13:17:17.592Z,1.5
2023-05-15T13:18:33.803Z,0.9
2023-05-15T13:19:50.000Z,1
2023-05-15T13:21:06.000Z,1.1
2023-05-15T13:22:22.550Z,0.8
2023-05-15T13:24:55.042Z,1.2
2023-05-15T13:26:11.273Z,1.2
2023-05-15T13:27:27.516Z,1.1
2023-05-15T13:28:42.000Z,1.6
2023-05-15T13:31:15.000Z,1.3
2023-05-15T13:32:31.484Z,0.6
2023-05-15T13:33:47.000Z,1.1
2023-05-15T13:35:03.978Z,1
2023-05-15T13:36:20.207Z,1.7
2023-05-15T13:37:36.440Z,1.2
2023-05-15T13:38:52.676Z,1.1
2023-05-15T13:40:08.916Z,0.9
2023-05-15T13:41:25.000Z,1.3
2023-05-15T13:42:41.413Z,1.3
2023-05-15T13:43:57.637Z,1.2
2023-05-15T13:45:12.906Z,1.1
2023-05-15T13:46:29.149Z,0.9
2023-05-15T13:47:45.343Z,1.2
2023-05-15T13:49:01.610Z,1.3
2023-05-15T13:50:17.827Z,1.1
2023-05-15T13:51:34.092Z,1.1
2023-05-15T13:52:50.000Z,0.9
2023-05-15T13:54:06.541Z,1.3
2023-05-15T13:55:22.000Z,0.8
2023-05-15T13:56:39.000Z,1
2023-05-15T13:57:55.288Z,1.2
2023-05-15T13:59:11.537Z,1.4
2023-05-15T14:00:27.773Z,1.4
2023-05-15T14:01:43.036Z,1.1
2023-05-15T14:02:59.269Z,0.9
2023-05-15T14:04:15.520Z,1.3
2023-05-15T14:05:31.746Z,1.5
2023-05-15T14:06:47.981Z,1.3
2023-05-15T14:08:04.233Z,1
2023-05-15T14:09:20.000Z,1
2023-05-15T14:10:36.718Z,1.1
2023-05-15T14:11:52.952Z,0.8
2023-05-15T14:13:09.192Z,1.3
2023-05-15T14:14:25.000Z,1.7
2023-05-15T14:15:41.000Z,1
2023-05-15T14:16:57.897Z,1
2023-05-15T14:18:13.149Z,0.8
2023-05-15T14:19:29.000Z,1.1
2023-05-15T14:20:45.634Z,1.1
2023-05-15T14:22:01.876Z,0.6
2023-05-15T14:23:18.116Z,1
2023-05-15T14:24:34.353Z,0.7
2023-05-15T14:25:50.000Z,1.1
2023-05-15T14:27:06.000Z,0.9
2023-05-15T14:28:23.065Z,0.6
2023-05-15T14:29:39.303Z,1
2023-05-15T14:30:55.551Z,0.8
2023-05-15T14:32:11.000Z,0.8
2023-05-15T14:33:28.030Z,0.7
2023-05-15T14:34:43.252Z,0.7
2023-05-15T14:35:59.533Z,0.8
2023-05-15T14:37:15.000Z,0.8
2023-05-15T14:38:32.000Z,1.1
2023-05-15T14:39:48.000Z,1
2023-05-15T14:41:04.479Z,0.9
2023-05-15T14:42:20.711Z,1
2023-05-15T14:43:36.953Z,1.1
2023-05-15T14:44:53.160Z,1.3
2023-05-15T14:46:09.438Z,0.7
2023-05-15T14:47:25.646Z,0.9
2023-05-15T14:48:41.000Z,0.9
2023-05-15T14:49:58.000Z,1.4
2023-05-15T14:51:13.376Z,1.6
2023-05-15T14:52:29.656Z,0.9
2023-05-15T14:53:45.885Z,0.9
2023-05-15T14:55:02.118Z,0.7
2023-05-15T14:56:18.374Z,1
2023-05-15T14:57:34.573Z,0.8
2023-05-15T14:58:50.849Z,0.8
2023-05-15T15:00:07.060Z,0.7
2023-05-15T15:01:23.000Z,1
2023-05-15T15:02:39.565Z,0.8
2023-05-15T15:03:55.808Z,1.6
2023-05-15T15:05:12.040Z,0.9
2023-05-15T15:06:28.271Z,0.8
2023-05-15T15:07:44.529Z,0.6
2023-05-15T15:08:59.787Z,0.8
2023-05-15T15:10:16.006Z,0.9
2023-05-15T15:11:32.256Z,1
2023-05-15T15:12:48.000Z,0.7
2023-05-15T15:14:04.744Z,0.9
2023-05-15T15:15:21.093Z,1
2023-05-15T15:16:37.343Z,1.1
2023-05-15T15:17:53.584Z,0.9
2023-05-15T15:19:09.813Z,1.1
2023-05-15T15:20:26.065Z,1
2023-05-15T15:21:42.304Z,0.8
2023-05-15T15:22:58.530Z,1
2023-05-15T15:24:14.000Z,1.2
2023-05-15T15:25:31.024Z,0.9
2023-05-15T15:26:47.000Z,0.9
2023-05-15T15:28:03.000Z,0.8
2023-05-15T15:29:19.725Z,1.2
2023-05-15T15:30:35.000Z,0.9
2023-05-15T15:31:51.224Z,0.7
2023-05-15T15:33:07.475Z,1
2023-05-15T15:34:23.670Z,1
2023-05-15T15:35:39.916Z,1
2023-05-15T15:36:56.186Z,1.2
2023-05-15T15:38:12.400Z,0.9
2023-05-15T15:39:28.000Z,1.5
2023-05-15T15:40:44.914Z,1.2
2023-05-15T15:42:01.153Z,1.2
2023-05-15T15:43:17.378Z,1
2023-05-15T15:44:33.621Z,1.3
2023-05-15T15:45:49.863Z,1.3
2023-05-15T15:47:06.098Z,1.1
2023-05-15T15:48:21.361Z,1
2023-05-15T15:49:37.000Z,1.3
2023-05-15T15:50:53.834Z,1.1
2023-05-15T15:52:10.078Z,1.1
2023-05-15T15:53:26.325Z,1.3
2023-05-15T15:54:42.550Z,1.2
2023-05-15T15:55:58.000Z,1.5
2023-05-15T15:57:15.001Z,1.3
2023-05-15T15:58:31.261Z,0.8
2023-05-15T15:59:47.507Z,1.2
2023-05-15T16:01:03.000Z,1
2023-05-15T16:02:19.000Z,1.3
2023-05-15T16:03:36.197Z,0.7
2023-05-15T16:04:51.479Z,0.7
2023-05-15T16:06:07.726Z,1.2
2023-05-15T16:07:23.952Z,1.2
2023-05-15T16:08:40.000Z,1.3
2023-05-15T16:09:56.433Z,1.2
2023-05-15T16:11:12.678Z,0.7
2023-05-15T16:12:28.914Z,1.3
2023-05-15T16:13:45.156Z,1.5
2023-05-15T16:15:01.386Z,0.8
2023-05-15T16:16:17.639Z,1
2023-05-15T16:17:33.866Z,1.3
2023-05-15T16:18:50.110Z,1
2023-05-15T16:20:06.345Z,1.2
2023-05-15T16:21:21.601Z,1
2023-05-15T16:22:37.858Z,1.1
2023-05-15T16:23:54.088Z,1.1
2023-05-15T16:25:10.324Z,1
2023-05-15T16:26:26.562Z,0.9
2023-05-15T16:27:42.798Z,1.2
2023-05-15T16:28:59.049Z,0.9
2023-05-15T16:30:15.247Z,1.2
2023-05-15T16:31:31.535Z,1.3
2023-05-15T16:32:47.757Z,0.8
2023-05-15T16:34:04.003Z,1.3
2023-05-15T16:35:20.241Z,1.1
2023-05-15T16:36:36.494Z,0.9
2023-05-15T16:37:51.705Z,1.1
2023-05-15T16:39:07.972Z,0.9
2023-05-15T16:40:24.214Z,1.1
2023-05-15T16:41:40.452Z,1.5
2023-05-15T16:42:56.690Z,1
2023-05-15T16:44:12.930Z,0.9
2023-05-15T16:45:29.181Z,1.5
2023-05-15T16:46:45.425Z,1.1
2023-05-15T16:48:01.647Z,1.1
2023-05-15T16:49:17.887Z,1.2
2023-05-15T16:50:34.145Z,0.8
2023-05-15T16:51:50.338Z,0.8
2023-05-15T16:53:06.619Z,0.8
2023-05-15T16:54:21.842Z,1.1
2023-05-15T16:55:38.107Z,0.9
2023-05-15T16:56:54.344Z,1.1
2023-05-15T16:58:10.553Z,1.2
2023-05-15T16:59:26.788Z,0.9
2023-05-15T17:00:43.077Z,1
2023-05-15T17:01:59.306Z,1.3
2023-05-15T17:03:15.551Z,0.9
2023-05-15T17:04:31.794Z,0.8
2023-05-15T17:05:48.029Z,1.1
2023-05-15T17:07:04.226Z,1.1
2023-05-15T17:08:20.508Z,0.9
2023-05-15T17:09:36.756Z,1.2
2023-05-15T17:10:51.998Z,1.1
2023-05-15T17:12:08.234Z,1.1
2023-05-15T17:13:24.480Z,0.9
2023-05-15T17:14:40.721Z,1.1
2023-05-15T17:15:56.955Z,1.2
2023-05-15T17:17:13.206Z,1
2023-05-15T17:18:29.440Z,0.7
2023-05-15T17:19:45.675Z,0.7
2023-05-15T17:21:01.929Z,1.6
2023-05-15T17:22:18.162Z,1.1
2023-05-15T17:23:34.397Z,0.9
2023-05-15T17:24:50.629Z,0.8
2023-05-15T17:26:06.884Z,0.8
2023-05-15T17:27:23.229Z,0.6
2023-05-15T17:28:39.482Z,0.7
2023-05-15T17:29:55.676Z,1
2023-05-15T17:31:11.947Z,0.9
2023-05-15T17:32:28.187Z,1
2023-05-15T17:33:44.438Z,1.3
2023-05-15T17:35:00.684Z,1.7
2023-05-15T17:36:16.911Z,1.1
2023-05-15T17:37:33.151Z,1
2023-05-15T17:38:49.388Z,0.9
2023-05-15T17:40:05.628Z,1.3
2023-05-15T17:41:21.859Z,1
2023-05-15T17:42:38.086Z,0.8
2023-05-15T17:43:53.372Z,0.9